createdAt,value
2022-08-26T00:01:05.624Z,4.03
2022-08-26T00:03:52.955Z,3.80
2022-08-26T00:06:40.197Z,4.00
2022-08-26T00:09:28.413Z,4.10
2022-08-26T00:12:14.297Z,3.85
2022-08-26T00:15:00.693Z,4.00
2022-08-26T00:17:47.589Z,4.00
2022-08-26T00:20:34.874Z,4.07
2022-08-26T00:23:24.204Z,3.65
2022-08-26T00:26:11.012Z,3.70
2022-08-26T00:28:56.942Z,4.35
2022-08-26T00:31:42.937Z,3.80
2022-08-26T00:34:31.222Z,3.97
2022-08-26T00:37:17.242Z,4.03
2022-08-26T00:40:05.271Z,4.18
2022-08-26T00:42:51.530Z,4.22
2022-08-26T00:45:55.351Z,3.60
2022-08-26T00:48:43.857Z,4.65
2022-08-26T00:51:31.527Z,3.85
2022-08-26T00:54:21.112Z,4.07
2022-08-26T00:57:15.922Z,4.13
2022-08-26T01:00:07.154Z,4.05
2022-08-26T01:02:54.838Z,4.10
2022-08-26T01:05:42.304Z,4.10
2022-08-26T01:08:28.455Z,4.05
2022-08-26T01:11:15.203Z,3.83
2022-08-26T01:14:04.715Z,4.07
2022-08-26T01:16:52.332Z,4.20
2022-08-26T01:19:48.793Z,3.70
2022-08-26T01:23:03.143Z,4.22
2022-08-26T01:25:54.868Z,4.30
2022-08-26T01:28:42.495Z,4.10
2022-08-26T01:31:46.426Z,5.03
2022-08-26T01:34:37.502Z,4.00
2022-08-26T01:37:27.882Z,4.20
2022-08-26T01:40:20.519Z,4.15
2022-08-26T01:43:08.379Z,4.07
2022-08-26T01:45:56.904Z,4.05
2022-08-26T01:48:44.861Z,4.10
2022-08-26T01:51:37.060Z,3.85
2022-08-26T01:54:24.525Z,4.40
2022-08-26T01:57:10.125Z,4.38
2022-08-26T01:59:59.874Z,4.47
2022-08-26T02:02:48.564Z,4.05
2022-08-26T02:05:34.481Z,4.15
2022-08-26T02:08:26.461Z,4.32
2022-08-26T02:11:13.043Z,3.92
2022-08-26T02:14:09.919Z,4.35
2022-08-26T02:16:56.875Z,4.20
2022-08-26T02:19:46.609Z,4.05
2022-08-26T02:22:32.956Z,4.30
2022-08-26T02:25:29.945Z,3.75
2022-08-26T02:28:17.690Z,4.20
2022-08-26T02:31:05.599Z,4.38
2022-08-26T02:33:53.387Z,4.90
2022-08-26T02:36:40.177Z,4.60
2022-08-26T02:39:26.074Z,5.25
2022-08-26T02:42:12.443Z,5.28
2022-08-26T02:44:58.567Z,4.78
2022-08-26T02:47:45.655Z,4.57
2022-08-26T02:50:32.305Z,4.80
2022-08-26T02:53:24.477Z,5.13
2022-08-26T02:56:11.521Z,5.15
2022-08-26T02:58:57.304Z,5.05
2022-08-26T03:01:45.163Z,4.47
2022-08-26T03:04:33.450Z,4.30
2022-08-26T03:07:20.202Z,4.38
2022-08-26T03:10:08.228Z,4.53
2022-08-26T03:12:54.443Z,4.00
2022-08-26T03:15:41.156Z,4.38
2022-08-26T03:18:26.788Z,4.57
2022-08-26T03:21:16.417Z,4.30
2022-08-26T03:24:04.151Z,4.22
2022-08-26T03:26:52.405Z,4.43
2022-08-26T03:29:57.622Z,3.88
2022-08-26T03:32:43.497Z,4.20
2022-08-26T03:35:29.705Z,4.03
2022-08-26T03:38:16.579Z,4.30
2022-08-26T03:41:02.658Z,4.50
2022-08-26T03:43:50.743Z,4.65
2022-08-26T03:46:37.286Z,4.30
2022-08-26T03:49:23.511Z,4.40
2022-08-26T03:52:10.477Z,4.78
2022-08-26T03:54:55.848Z,4.75
2022-08-26T03:57:42.376Z,4.35
2022-08-26T04:00:28.969Z,5.03
2022-08-26T04:03:34.466Z,5.05
2022-08-26T04:06:19.994Z,4.43
2022-08-26T04:09:19.679Z,5.40
2022-08-26T04:12:06.503Z,4.47
2022-08-26T04:14:53.004Z,4.82
2022-08-26T04:17:39.641Z,5.22
2022-08-26T04:20:26.213Z,4.97
2022-08-26T04:23:11.934Z,5.07
2022-08-26T04:25:57.934Z,5.47
2022-08-26T04:28:44.175Z,4.72
2022-08-26T04:31:30.978Z,5.07
2022-08-26T04:34:17.690Z,5.05
2022-08-26T04:37:03.994Z,4.50
2022-08-26T04:39:53.372Z,5.07
2022-08-26T04:42:39.041Z,5.38
2022-08-26T04:45:25.239Z,4.78
2022-08-26T04:48:11.364Z,5.07
2022-08-26T04:50:57.460Z,5.18
2022-08-26T04:53:44.432Z,4.43
2022-08-26T04:56:34.017Z,4.55
2022-08-26T04:59:19.803Z,5.05
2022-08-26T05:02:06.762Z,4.25
2022-08-26T05:04:52.509Z,4.72
2022-08-26T05:07:38.522Z,4.82
2022-08-26T05:10:24.410Z,5.50
2022-08-26T05:13:12.637Z,4.78
2022-08-26T05:16:05.967Z,4.95
2022-08-26T05:18:53.941Z,4.70
2022-08-26T05:21:40.152Z,4.65
2022-08-26T05:24:26.442Z,4.50
2022-08-26T05:27:14.328Z,4.35
2022-08-26T05:30:00.189Z,4.15
2022-08-26T05:32:55.138Z,4.70
2022-08-26T05:35:42.173Z,4.50
2022-08-26T05:38:30.208Z,4.70
2022-08-26T05:41:34.289Z,4.25
2022-08-26T05:44:22.454Z,3.90
2022-08-26T05:47:08.168Z,3.75
2022-08-26T05:49:56.082Z,3.97
2022-08-26T05:52:42.698Z,4.10
2022-08-26T05:55:28.773Z,4.00
2022-08-26T05:58:15.607Z,4.30
2022-08-26T06:01:08.612Z,3.65
2022-08-26T06:03:59.652Z,4.25
2022-08-26T06:06:47.952Z,4.22
2022-08-26T06:09:37.370Z,3.90
2022-08-26T06:12:25.004Z,4.10
2022-08-26T06:15:12.898Z,3.95
2022-08-26T06:18:01.936Z,4.20
2022-08-26T06:20:57.070Z,3.80
2022-08-26T06:24:04.956Z,3.80
2022-08-26T06:26:54.969Z,4.20
2022-08-26T06:29:41.817Z,3.65
2022-08-26T06:32:27.548Z,3.97
2022-08-26T06:35:13.797Z,4.20
2022-08-26T06:38:00.355Z,4.50
2022-08-26T06:40:49.062Z,4.05
2022-08-26T06:43:36.178Z,4.60
2022-08-26T06:46:23.177Z,4.30
2022-08-26T06:49:12.886Z,4.20
2022-08-26T06:51:58.918Z,4.40
2022-08-26T06:54:45.071Z,4.75
2022-08-26T06:57:32.919Z,4.47
2022-08-26T07:00:21.697Z,4.57
2022-08-26T07:03:08.748Z,4.65
2022-08-26T07:06:01.862Z,5.10
2022-08-26T07:08:51.313Z,5.50
2022-08-26T07:11:39.044Z,5.10
2022-08-26T07:14:26.364Z,5.47
2022-08-26T07:17:13.911Z,5.68
2022-08-26T07:20:00.536Z,5.70
2022-08-26T07:22:46.001Z,5.72
2022-08-26T07:25:31.976Z,5.88
2022-08-26T07:28:17.645Z,6.60
2022-08-26T07:31:12.248Z,5.53
2022-08-26T07:33:58.119Z,5.70
2022-08-26T07:36:44.544Z,6.15
2022-08-26T07:39:32.867Z,6.90
2022-08-26T07:42:20.417Z,6.10
2022-08-26T07:45:07.017Z,6.80
2022-08-26T07:47:52.929Z,6.13
2022-08-26T07:50:50.256Z,5.80
2022-08-26T07:53:37.334Z,5.90
2022-08-26T07:56:23.550Z,6.18
2022-08-26T07:59:13.669Z,5.82
2022-08-26T08:02:01.441Z,5.40
2022-08-26T08:04:47.785Z,5.43
2022-08-26T08:07:44.676Z,4.78
2022-08-26T08:10:31.444Z,6.10
2022-08-26T08:13:17.190Z,5.22
2022-08-26T08:16:05.016Z,6.10
2022-08-26T08:18:50.754Z,6.25
2022-08-26T08:21:36.822Z,6.45
2022-08-26T08:24:22.462Z,5.82
2022-08-26T08:27:09.161Z,5.72
2022-08-26T08:29:57.238Z,4.88
2022-08-26T08:32:46.235Z,5.05
2022-08-26T08:35:32.607Z,6.10
2022-08-26T08:38:18.803Z,4.85
2022-08-26T08:41:04.852Z,4.57
2022-08-26T08:43:52.502Z,6.43
2022-08-26T08:46:40.027Z,5.70
2022-08-26T08:49:42.618Z,7.68
2022-08-26T08:52:32.669Z,6.25
2022-08-26T08:55:19.245Z,6.28
2022-08-26T08:58:13.501Z,5.43
2022-08-26T09:01:04.987Z,5.53
2022-08-26T09:04:04.368Z,6.20
2022-08-26T09:06:54.625Z,6.60
2022-08-26T09:09:55.779Z,7.28
2022-08-26T09:12:43.320Z,4.82
2022-08-26T09:16:02.526Z,6.07
2022-08-26T09:19:19.018Z,6.60
2022-08-26T09:22:09.331Z,6.30
2022-08-26T09:24:56.232Z,5.45
2022-08-26T09:27:50.527Z,4.05
2022-08-26T09:30:37.282Z,4.28
2022-08-26T09:33:30.057Z,7.00
2022-08-26T09:36:45.571Z,5.45
2022-08-26T09:39:37.565Z,7.03
2022-08-26T09:42:25.410Z,6.03
2022-08-26T09:45:12.834Z,5.13
2022-08-26T09:48:01.212Z,6.75
2022-08-26T09:50:55.405Z,4.88
2022-08-26T09:53:54.441Z,5.05
2022-08-26T09:56:40.810Z,4.90
2022-08-26T09:59:30.772Z,5.75
2022-08-26T10:02:37.049Z,5.22
2022-08-26T10:05:37.501Z,5.93
2022-08-26T10:08:42.601Z,6.70
2022-08-26T10:11:51.804Z,6.63
2022-08-26T10:14:52.026Z,5.63
2022-08-26T10:17:46.799Z,7.05
2022-08-26T10:20:37.700Z,6.85
2022-08-26T10:23:27.518Z,4.72
2022-08-26T10:26:46.077Z,4.90
2022-08-26T10:29:39.651Z,6.75
2022-08-26T10:32:41.274Z,4.22
2022-08-26T10:35:29.147Z,6.20
2022-08-26T10:38:20.165Z,5.22
2022-08-26T10:41:17.005Z,4.43
2022-08-26T10:44:07.218Z,4.70
2022-08-26T10:47:01.613Z,4.47
2022-08-26T10:49:50.382Z,4.63
2022-08-26T10:52:51.340Z,3.78
2022-08-26T10:55:41.214Z,3.88
2022-08-26T10:58:36.026Z,4.43
2022-08-26T11:01:43.550Z,4.50
2022-08-26T11:04:48.370Z,4.25
2022-08-26T11:07:46.629Z,5.15
2022-08-26T11:10:59.272Z,4.38
2022-08-26T11:13:59.464Z,4.22
2022-08-26T11:16:53.352Z,4.18
2022-08-26T11:20:00.126Z,5.70
2022-08-26T11:22:48.297Z,5.13
2022-08-26T11:25:38.865Z,4.90
2022-08-26T11:28:34.586Z,5.05
2022-08-26T11:31:27.074Z,5.05
2022-08-26T11:34:14.191Z,4.20
2022-08-26T11:37:01.449Z,4.13
2022-08-26T11:39:55.341Z,4.95
2022-08-26T11:42:50.572Z,4.30
2022-08-26T11:45:39.309Z,4.13
2022-08-26T11:48:35.865Z,3.75
2022-08-26T11:51:22.376Z,3.90
2022-08-26T11:54:30.561Z,4.43
2022-08-26T11:57:22.261Z,4.05
2022-08-26T12:00:16.876Z,4.32
2022-08-26T12:03:08.382Z,4.47
2022-08-26T12:05:55.185Z,3.75
2022-08-26T12:08:44.116Z,3.65
2022-08-26T12:11:32.978Z,3.63
2022-08-26T12:14:27.819Z,3.75
2022-08-26T12:17:27.790Z,3.50
2022-08-26T12:20:21.253Z,3.80
2022-08-26T12:23:07.583Z,4.30
2022-08-26T12:26:07.544Z,3.53
2022-08-26T12:29:19.717Z,3.78
2022-08-26T12:32:12.338Z,3.65
2022-08-26T12:34:58.542Z,3.65
2022-08-26T12:37:48.904Z,3.60
2022-08-26T12:40:44.888Z,4.07
2022-08-26T12:43:48.928Z,3.75
2022-08-26T12:46:34.875Z,3.38
2022-08-26T12:49:20.684Z,3.70
2022-08-26T12:52:09.699Z,3.97
2022-08-26T12:55:02.460Z,2.90
2022-08-26T12:57:48.430Z,3.53
2022-08-26T13:00:37.210Z,3.45
2022-08-26T13:03:30.864Z,2.78
2022-08-26T13:06:17.204Z,3.17
2022-08-26T13:09:29.958Z,2.90
2022-08-26T13:12:28.449Z,3.00
2022-08-26T13:15:14.374Z,3.22
2022-08-26T13:18:00.213Z,2.78
2022-08-26T13:20:46.358Z,3.13
2022-08-26T13:23:32.357Z,4.05
2022-08-26T13:26:18.776Z,3.35
2022-08-26T13:29:10.029Z,3.47
2022-08-26T13:31:56.568Z,3.20
2022-08-26T13:34:51.052Z,3.80
2022-08-26T13:37:37.371Z,3.90
2022-08-26T13:40:23.260Z,3.38
2022-08-26T13:43:10.349Z,3.10
2022-08-26T13:45:56.681Z,3.33
2022-08-26T13:48:42.113Z,3.03
2022-08-26T13:51:31.289Z,3.20
2022-08-26T13:54:17.316Z,3.40
2022-08-26T13:57:03.262Z,3.28
2022-08-26T13:59:48.931Z,3.03
2022-08-26T14:02:34.900Z,2.88
2022-08-26T14:05:21.784Z,3.30
2022-08-26T14:08:08.550Z,4.18
2022-08-26T14:10:55.174Z,3.53
2022-08-26T14:13:41.279Z,3.63
2022-08-26T14:16:33.201Z,2.95
2022-08-26T14:19:19.028Z,3.97
2022-08-26T14:22:09.953Z,3.35
2022-08-26T14:24:56.529Z,3.58
2022-08-26T14:27:42.597Z,3.72
2022-08-26T14:30:28.712Z,3.33
2022-08-26T14:33:15.107Z,3.13
2022-08-26T14:36:19.875Z,3.35
2022-08-26T14:39:09.389Z,3.22
2022-08-26T14:41:56.972Z,3.20
2022-08-26T14:44:45.791Z,3.10
2022-08-26T14:47:31.253Z,2.60
2022-08-26T14:50:19.784Z,3.20
2022-08-26T14:53:23.719Z,2.67
2022-08-26T14:56:12.684Z,2.70
2022-08-26T14:59:01.781Z,2.90
2022-08-26T15:01:48.159Z,3.38
2022-08-26T15:04:34.714Z,2.63
2022-08-26T15:07:20.877Z,3.22
2022-08-26T15:10:08.601Z,3.30
2022-08-26T15:12:54.493Z,2.92
2022-08-26T15:15:40.831Z,3.20
2022-08-26T15:18:27.081Z,2.60
2022-08-26T15:21:13.102Z,2.72
2022-08-26T15:23:59.818Z,2.58
2022-08-26T15:26:47.427Z,3.13
2022-08-26T15:29:36.220Z,2.67
2022-08-26T15:32:23.123Z,2.83
2022-08-26T15:35:09.565Z,3.00
2022-08-26T15:37:55.431Z,3.17
2022-08-26T15:40:41.347Z,2.90
2022-08-26T15:43:29.086Z,3.10
2022-08-26T15:46:15.253Z,3.45
2022-08-26T15:49:01.786Z,2.80
2022-08-26T15:51:50.556Z,3.38
2022-08-26T15:54:36.495Z,3.20
2022-08-26T15:57:22.703Z,2.97
2022-08-26T16:00:09.737Z,3.67
2022-08-26T16:02:58.613Z,3.83
2022-08-26T16:05:44.946Z,3.58
2022-08-26T16:08:30.946Z,2.80
2022-08-26T16:11:22.869Z,3.50
2022-08-26T16:14:09.258Z,3.67
2022-08-26T16:16:56.567Z,3.35
2022-08-26T16:19:42.551Z,3.17
2022-08-26T16:22:28.781Z,3.22
2022-08-26T16:25:14.849Z,3.30
2022-08-26T16:28:00.729Z,3.15
2022-08-26T16:30:52.650Z,2.85
2022-08-26T16:33:39.007Z,3.20
2022-08-26T16:36:25.323Z,3.65
2022-08-26T16:39:11.244Z,2.92
2022-08-26T16:41:57.422Z,3.70
2022-08-26T16:44:45.534Z,3.20
2022-08-26T16:47:31.718Z,3.58
2022-08-26T16:50:19.473Z,3.47
2022-08-26T16:53:05.887Z,3.42
2022-08-26T16:55:51.670Z,3.88
2022-08-26T16:58:37.752Z,3.65
2022-08-26T17:01:24.430Z,3.63
2022-08-26T17:04:10.531Z,3.70
2022-08-26T17:06:56.667Z,3.10
2022-08-26T17:09:43.066Z,3.50
2022-08-26T17:12:29.242Z,3.53
2022-08-26T17:15:16.260Z,3.50
2022-08-26T17:18:02.111Z,3.47
2022-08-26T17:20:48.392Z,3.40
2022-08-26T17:23:35.371Z,3.88
2022-08-26T17:26:21.276Z,3.85
2022-08-26T17:29:07.401Z,4.03
2022-08-26T17:31:53.543Z,3.60
2022-08-26T17:34:39.278Z,4.10
2022-08-26T17:37:25.316Z,3.63
2022-08-26T17:40:15.449Z,3.53
2022-08-26T17:43:01.696Z,3.92
2022-08-26T17:45:48.115Z,3.60
2022-08-26T17:48:34.463Z,3.75
2022-08-26T17:51:22.708Z,3.75
2022-08-26T17:54:09.194Z,4.05
2022-08-26T17:56:54.999Z,3.78
2022-08-26T17:59:43.180Z,3.72
2022-08-26T18:05:17.529Z,4.22
2022-08-26T18:08:03.825Z,3.75
2022-08-26T18:10:49.918Z,3.92
2022-08-26T18:13:35.642Z,3.63
2022-08-26T18:16:21.824Z,4.45
2022-08-26T18:19:08.470Z,3.75
2022-08-26T18:21:54.492Z,3.58
2022-08-26T18:24:40.153Z,3.70
2022-08-26T18:27:41.856Z,3.75
2022-08-26T18:30:27.875Z,4.00
2022-08-26T18:33:14.727Z,3.88
2022-08-26T18:36:01.628Z,4.53
2022-08-26T18:38:50.279Z,3.60
2022-08-26T18:41:45.829Z,4.07
2022-08-26T18:44:31.841Z,4.13
2022-08-26T18:47:17.951Z,4.00
2022-08-26T18:50:04.555Z,4.00
2022-08-26T18:52:50.261Z,3.70
2022-08-26T18:55:35.941Z,3.92
2022-08-26T18:58:21.659Z,3.95
2022-08-26T19:01:07.670Z,3.40
2022-08-26T19:03:53.368Z,3.60
2022-08-26T19:06:40.313Z,3.42
2022-08-26T19:09:26.737Z,3.80
2022-08-26T19:12:13.353Z,3.83
2022-08-26T19:15:01.649Z,4.00
2022-08-26T19:17:48.121Z,3.88
2022-08-26T19:20:35.130Z,4.22
2022-08-26T19:23:31.436Z,4.28
2022-08-26T19:26:18.464Z,3.88
2022-08-26T19:29:04.172Z,4.00
2022-08-26T19:31:50.128Z,3.90
2022-08-26T19:34:36.389Z,4.15
2022-08-26T19:37:22.358Z,4.00
2022-08-26T19:40:08.317Z,4.32
2022-08-26T19:42:54.682Z,4.25
2022-08-26T19:45:40.650Z,4.20
2022-08-26T19:48:26.263Z,4.00
2022-08-26T19:51:18.132Z,3.95
2022-08-26T19:54:04.455Z,4.03
2022-08-26T19:56:50.318Z,4.05
2022-08-26T19:59:36.473Z,3.55
2022-08-26T20:02:22.235Z,3.83
2022-08-26T20:05:10.060Z,3.47
2022-08-26T20:07:56.063Z,3.75
2022-08-26T20:10:41.819Z,3.65
2022-08-26T20:13:29.630Z,3.78
2022-08-26T20:16:16.438Z,3.40
2022-08-26T20:19:21.200Z,4.60
2022-08-26T20:22:07.009Z,3.80
2022-08-26T20:24:53.229Z,3.60
2022-08-26T20:27:39.453Z,4.00
2022-08-26T20:30:24.962Z,3.92
2022-08-26T20:33:10.454Z,3.70
2022-08-26T20:35:56.580Z,3.80
2022-08-26T20:38:43.071Z,3.35
2022-08-26T20:41:28.943Z,3.58
2022-08-26T20:44:16.606Z,3.63
2022-08-26T20:47:02.405Z,3.70
2022-08-26T20:49:48.307Z,3.67
2022-08-26T20:52:38.821Z,3.63
2022-08-26T20:55:25.741Z,3.80
2022-08-26T20:58:11.949Z,3.17
2022-08-26T21:00:58.365Z,3.63
2022-08-26T21:03:44.255Z,3.97
2022-08-26T21:06:30.741Z,3.75
2022-08-26T21:09:18.309Z,3.45
2022-08-26T21:12:04.028Z,3.80
2022-08-26T21:14:49.932Z,3.72
2022-08-26T21:17:36.395Z,3.33
2022-08-26T21:20:21.869Z,3.60
2022-08-26T21:23:08.796Z,3.78
2022-08-26T21:25:54.373Z,3.55
2022-08-26T21:28:42.827Z,3.50
2022-08-26T21:31:29.764Z,3.25
2022-08-26T21:34:17.853Z,3.53
2022-08-26T21:37:03.314Z,3.35
2022-08-26T21:39:57.089Z,3.50
2022-08-26T21:42:42.671Z,3.63
2022-08-26T21:45:28.894Z,3.67
2022-08-26T21:48:14.899Z,4.05
2022-08-26T21:51:01.377Z,4.10
2022-08-26T21:53:47.725Z,3.42
2022-08-26T21:56:39.572Z,4.10
2022-08-26T21:59:25.649Z,3.83
2022-08-26T22:02:11.595Z,4.30
2022-08-26T22:04:57.990Z,3.95
2022-08-26T22:07:43.742Z,4.13
2022-08-26T22:10:29.937Z,3.72
2022-08-26T22:13:15.705Z,3.60
2022-08-26T22:16:01.805Z,4.05
2022-08-26T22:18:47.773Z,4.40
2022-08-26T22:21:35.272Z,4.53
2022-08-26T22:24:23.600Z,4.75
2022-08-26T22:27:09.197Z,4.10
2022-08-26T22:29:55.134Z,4.18
2022-08-26T22:32:41.116Z,4.05
2022-08-26T22:35:29.752Z,4.20
2022-08-26T22:38:16.290Z,3.97
2022-08-26T22:41:04.378Z,4.13
2022-08-26T22:43:54.460Z,4.25
2022-08-26T22:46:41.668Z,3.95
2022-08-26T22:49:27.385Z,3.83
2022-08-26T22:52:12.904Z,4.07
2022-08-26T22:54:59.136Z,3.80
2022-08-26T22:57:44.882Z,3.67
2022-08-26T23:00:32.402Z,4.47
2022-08-26T23:03:18.655Z,4.00
2022-08-26T23:06:10.072Z,4.03
2022-08-26T23:08:55.761Z,4.20
2022-08-26T23:11:43.281Z,4.07
2022-08-26T23:14:28.705Z,3.97
2022-08-26T23:17:14.830Z,3.92
2022-08-26T23:20:00.946Z,4.32
2022-08-26T23:22:46.768Z,3.55
2022-08-26T23:25:33.449Z,3.60
2022-08-26T23:28:20.854Z,3.90
2022-08-26T23:31:06.988Z,3.58
2022-08-26T23:34:11.579Z,3.92
2022-08-26T23:37:00.116Z,3.85
2022-08-26T23:39:46.738Z,3.92
2022-08-26T23:42:32.489Z,3.90
2022-08-26T23:45:19.915Z,3.42
2022-08-26T23:48:06.084Z,4.25
2022-08-26T23:51:10.278Z,3.83
2022-08-26T23:53:56.403Z,4.18
2022-08-26T23:56:42.687Z,4.28
2022-08-26T23:59:28.932Z,3.50
